Time;durP1;ratioP1;P1;durP2;ratioP2;P2;SDS_P1;SDS_P2;PMS_P1;PMS_P2;Temp;Humidity;BMP_temperature;BMP_pressure;BME280_temperature;BME280_humidity;BME280_pressure;Samples;Min_cycle;Max_cycle;Signal;HPM_P1;HPM_P2
2023/08/15 00:01:12;;;;;;;17.88;12.57;;;17.50;99.90;;;;;;5098657;28;20763;-75
2023/08/15 00:03:37;;;;;;;15.68;13.10;;;17.50;99.90;;;;;;5099505;28;20047;-75
2023/08/15 00:06:03;;;;;;;20.13;13.75;;;17.50;99.90;;;;;;5098594;28;20043;-75
2023/08/15 00:08:29;;;;;;;15.18;12.23;;;17.50;99.90;;;;;;5098670;28;20092;-75
2023/08/15 00:10:54;;;;;;;17.80;12.95;;;17.50;99.90;;;;;;5098429;28;20042;-75
2023/08/15 00:13:20;;;;;;;15.27;12.73;;;17.50;99.90;;;;;;5098733;28;20039;-75
2023/08/15 00:15:45;;;;;;;18.00;13.63;;;17.50;99.90;;;;;;5132883;27;20055;-75
2023/08/15 00:18:11;;;;;;;17.73;14.05;;;17.60;99.90;;;;;;5116698;28;20356;-75
2023/08/15 00:20:37;;;;;;;18.85;16.15;;;17.60;99.90;;;;;;5132730;27;20058;-75
2023/08/15 00:23:03;;;;;;;17.00;14.32;;;17.60;99.90;;;;;;5098173;28;20475;-75
2023/08/15 00:25:28;;;;;;;19.95;14.52;;;17.70;99.90;;;;;;5098013;28;20043;-75
2023/08/15 00:27:54;;;;;;;17.88;13.45;;;17.60;99.90;;;;;;5132123;27;20066;-75
2023/08/15 00:30:20;;;;;;;14.38;12.88;;;17.70;99.90;;;;;;5132486;27;20062;-75
2023/08/15 00:32:46;;;;;;;15.52;13.85;;;17.70;99.90;;;;;;5098204;28;20475;-75
2023/08/15 00:35:12;;;;;;;16.63;14.00;;;17.70;99.90;;;;;;5098369;28;20070;-75
2023/08/15 00:37:37;;;;;;;15.43;11.43;;;17.70;99.90;;;;;;5116164;28;20483;-75
2023/08/15 00:40:04;;;;;;;19.00;13.73;;;17.70;99.90;;;;;;5098130;28;20073;-75
2023/08/15 00:42:30;;;;;;;18.00;12.45;;;17.70;99.90;;;;;;5097854;28;20403;-75
2023/08/15 00:44:56;;;;;;;17.65;14.05;;;17.70;99.90;;;;;;5097778;28;20049;-75
2023/08/15 00:47:23;;;;;;;18.75;13.38;;;17.80;99.90;;;;;;5097866;28;20048;-75
2023/08/15 00:49:50;;;;;;;17.80;13.80;;;17.80;99.90;;;;;;5098046;28;20108;-75
2023/08/15 00:52:17;;;;;;;20.65;14.30;;;17.80;99.90;;;;;;5097584;28;20069;-75
2023/08/15 00:54:47;;;;;;;17.67;14.50;;;17.80;99.90;;;;;;5097776;28;20040;-75
2023/08/15 00:57:14;;;;;;;16.88;14.57;;;17.90;99.90;;;;;;5097558;28;20111;-75
2023/08/15 00:59:42;;;;;;;17.40;13.07;;;17.80;99.90;;;;;;5097596;28;20039;-75
2023/08/15 01:02:08;;;;;;;16.45;13.07;;;17.80;99.90;;;;;;5097822;28;20070;-75
2023/08/15 01:04:34;;;;;;;17.52;13.75;;;17.80;99.90;;;;;;5097643;28;20435;-75
2023/08/15 01:07:00;;;;;;;16.00;12.75;;;17.80;99.90;;;;;;5115654;28;20081;-75
2023/08/15 01:09:26;;;;;;;16.85;13.13;;;17.80;99.90;;;;;;5115439;28;20100;-75
2023/08/15 01:12:30;;;;;;;22.13;13.38;;;17.80;99.90;;;;;;5097097;28;20398;-75
2023/08/15 01:15:08;;;;;;;17.67;11.30;;;17.80;99.90;;;;;;5093245;28;20147;-75
2023/08/15 01:17:54;;;;;;;14.40;12.85;;;17.80;99.90;;;;;;5097523;28;20043;-75
2023/08/15 01:20:26;;;;;;;12.90;11.50;;;17.70;99.90;;;;;;5115443;28;20495;-75
2023/08/15 01:22:53;;;;;;;14.90;12.10;;;17.80;99.90;;;;;;5097469;28;20073;-75
2023/08/15 01:25:18;;;;;;;18.40;12.40;;;17.70;99.90;;;;;;5097087;28;20501;-75
2023/08/15 01:27:44;;;;;;;17.45;13.23;;;17.80;99.90;;;;;;5114883;28;20044;-75
2023/08/15 01:30:11;;;;;;;18.52;13.15;;;17.70;99.90;;;;;;5096917;28;20094;-75
2023/08/15 01:32:47;;;;;;;20.10;13.63;;;17.80;99.90;;;;;;5096982;28;20068;-75
2023/08/15 01:35:24;;;;;;;15.85;12.52;;;17.70;99.90;;;;;;5131325;27;20043;-75
2023/08/15 01:38:02;;;;;;;14.10;12.40;;;17.70;99.90;;;;;;5096915;28;20044;-75
2023/08/15 01:40:34;;;;;;;16.23;13.00;;;17.60;99.90;;;;;;5097011;28;20040;-75
2023/08/15 01:43:02;;;;;;;17.08;13.05;;;17.60;99.90;;;;;;5096971;28;20043;-75
2023/08/15 01:45:29;;;;;;;18.45;12.95;;;17.60;99.90;;;;;;5096614;28;20075;-75
2023/08/15 01:47:58;;;;;;;16.10;12.75;;;17.60;99.90;;;;;;5131143;27;20042;-75
2023/08/15 01:50:24;;;;;;;17.80;13.98;;;17.60;99.90;;;;;;5096606;28;20103;-75
2023/08/15 01:52:49;;;;;;;15.82;12.88;;;17.60;99.90;;;;;;5114816;28;20040;-75
2023/08/15 01:55:15;;;;;;;19.80;14.50;;;17.60;99.90;;;;;;5096530;28;20052;-75
2023/08/15 01:57:41;;;;;;;16.38;13.27;;;17.60;99.90;;;;;;5130517;27;20088;-75
2023/08/15 02:00:07;;;;;;;21.17;14.18;;;17.70;99.90;;;;;;5096817;28;20075;-75
2023/08/15 02:02:32;;;;;;;19.60;13.88;;;17.60;99.90;;;;;;5096679;28;20093;-75
2023/08/15 02:05:01;;;;;;;18.05;13.57;;;17.60;99.90;;;;;;5130241;27;20507;-75
2023/08/15 02:07:27;;;;;;;18.73;12.43;;;17.70;99.90;;;;;;5114618;28;20050;-75
2023/08/15 02:09:53;;;;;;;17.63;12.95;;;17.60;99.90;;;;;;5096128;28;20040;-75
2023/08/15 02:12:19;;;;;;;17.88;12.90;;;17.60;99.90;;;;;;5130238;27;20122;-75
2023/08/15 02:14:44;;;;;;;14.48;11.77;;;17.60;99.90;;;;;;5096448;28;20047;-75
2023/08/15 02:17:10;;;;;;;14.75;11.43;;;17.60;99.90;;;;;;5096395;28;20052;-75
2023/08/15 02:19:36;;;;;;;14.55;13.00;;;17.60;99.90;;;;;;5096515;28;20401;-75
2023/08/15 02:22:01;;;;;;;16.23;12.05;;;17.60;99.90;;;;;;5095417;28;20067;-76
2023/08/15 02:24:29;;;;;;;18.60;13.35;;;17.60;99.90;;;;;;5096036;28;20096;-75
2023/08/15 02:26:55;;;;;;;18.10;13.40;;;17.70;99.90;;;;;;5095734;28;20555;-75
2023/08/15 02:29:20;;;;;;;15.15;13.40;;;17.70;99.90;;;;;;5114237;28;20127;-76
2023/08/15 02:31:47;;;;;;;18.20;13.75;;;17.70;99.90;;;;;;5114130;28;20036;-75
2023/08/15 02:34:16;;;;;;;18.58;14.60;;;17.70;99.90;;;;;;5114640;28;20063;-75
2023/08/15 02:36:46;;;;;;;18.00;14.15;;;17.70;99.90;;;;;;5095729;28;20387;-75
2023/08/15 02:39:16;;;;;;;15.23;12.85;;;17.70;99.90;;;;;;5096415;28;20071;-75
2023/08/15 02:41:43;;;;;;;18.77;13.75;;;17.70;99.90;;;;;;5095794;28;20039;-75
2023/08/15 02:44:09;;;;;;;18.27;13.10;;;17.70;99.90;;;;;;5096070;28;20112;-75
2023/08/15 02:46:34;;;;;;;16.55;13.68;;;17.70;99.90;;;;;;5095793;28;20433;-75
2023/08/15 02:49:00;;;;;;;19.17;13.98;;;17.70;99.90;;;;;;5095574;28;20077;-75
2023/08/15 02:51:26;;;;;;;15.85;13.30;;;17.70;99.90;;;;;;5095662;28;20039;-75
2023/08/15 02:53:51;;;;;;;15.93;12.85;;;17.70;99.90;;;;;;5095682;28;20052;-75
2023/08/15 02:56:17;;;;;;;15.55;12.90;;;17.70;99.90;;;;;;5113857;28;20039;-75
2023/08/15 02:58:43;;;;;;;16.85;13.82;;;17.60;99.90;;;;;;5095995;28;20043;-75
2023/08/15 03:01:09;;;;;;;16.35;13.10;;;17.60;99.90;;;;;;5095658;28;20051;-75
2023/08/15 03:03:35;;;;;;;20.40;13.65;;;17.60;99.90;;;;;;5095436;28;20084;-75
2023/08/15 03:06:04;;;;;;;14.55;12.80;;;17.60;99.90;;;;;;5095792;28;20123;-75
2023/08/15 03:08:30;;;;;;;18.55;12.25;;;17.60;99.90;;;;;;5095534;28;20054;-75
2023/08/15 03:10:58;;;;;;;14.18;11.95;;;17.60;99.90;;;;;;5095513;28;20122;-75
2023/08/15 03:13:23;;;;;;;17.63;12.43;;;17.60;99.90;;;;;;5095820;28;20476;-75
2023/08/15 03:15:53;;;;;;;18.40;13.50;;;17.60;99.90;;;;;;5095330;28;20059;-75
2023/08/15 03:18:19;;;;;;;14.40;12.13;;;17.60;99.90;;;;;;5114016;28;20047;-75
2023/08/15 03:20:57;;;;;;;16.33;13.18;;;17.60;99.90;;;;;;5129794;28;20379;-75
2023/08/15 03:23:23;;;;;;;18.60;13.60;;;17.50;99.90;;;;;;5095450;28;20484;-75
2023/08/15 03:25:59;;;;;;;17.33;13.10;;;17.60;99.90;;;;;;5095363;28;20055;-75
2023/08/15 03:28:25;;;;;;;16.40;12.98;;;17.50;99.90;;;;;;5129387;28;20052;-75
2023/08/15 03:30:51;;;;;;;18.13;14.38;;;17.60;99.90;;;;;;5095247;28;20127;-75
2023/08/15 03:33:17;;;;;;;18.27;13.35;;;17.60;99.90;;;;;;5114465;28;20130;-75
2023/08/15 03:35:47;;;;;;;17.05;13.38;;;17.60;99.90;;;;;;5099211;28;20052;-75
2023/08/15 03:38:15;;;;;;;18.98;13.32;;;17.60;99.90;;;;;;5099177;28;20047;-75
2023/08/15 03:40:42;;;;;;;16.50;13.82;;;17.60;99.90;;;;;;5099126;28;20048;-75
2023/08/15 03:43:07;;;;;;;14.93;10.95;;;17.60;99.90;;;;;;5099184;28;20043;-75
2023/08/15 03:45:33;;;;;;;16.95;12.20;;;17.60;99.90;;;;;;5098984;28;20437;-75
2023/08/15 03:47:59;;;;;;;17.25;13.02;;;17.60;99.90;;;;;;5099254;28;20043;-75
2023/08/15 03:50:24;;;;;;;17.52;13.02;;;17.70;99.90;;;;;;5098785;28;20471;-75
2023/08/15 03:52:50;;;;;;;19.92;12.63;;;17.60;99.90;;;;;;5098957;28;20039;-75
2023/08/15 03:55:16;;;;;;;18.08;12.85;;;17.60;99.90;;;;;;5099003;28;20113;-75
2023/08/15 03:57:41;;;;;;;18.83;13.18;;;17.70;99.90;;;;;;5098686;28;20138;-75
2023/08/15 04:00:09;;;;;;;17.25;11.95;;;17.70;99.90;;;;;;5132795;27;20058;-75
2023/08/15 04:02:35;;;;;;;18.30;12.52;;;17.70;99.90;;;;;;5116995;28;20487;-75
2023/08/15 04:05:00;;;;;;;19.40;12.93;;;17.70;99.90;;;;;;5132822;27;20048;-75
2023/08/15 04:07:26;;;;;;;18.05;11.63;;;17.70;99.90;;;;;;5098883;28;20132;-75
2023/08/15 04:09:51;;;;;;;13.52;11.55;;;17.70;99.90;;;;;;5116848;28;20053;-75
2023/08/15 04:12:17;;;;;;;21.63;14.30;;;17.70;99.90;;;;;;5132280;27;20062;-73
2023/08/15 04:14:42;;;;;;;26.33;15.63;;;17.70;99.90;;;;;;5098110;28;20540;-73
2023/08/15 04:17:08;;;;;;;23.92;15.38;;;17.80;99.90;;;;;;5098695;28;20122;-74
2023/08/15 04:19:34;;;;;;;27.02;14.93;;;17.80;99.90;;;;;;5098713;28;20066;-73
2023/08/15 04:21:59;;;;;;;22.08;14.90;;;17.80;99.90;;;;;;5098276;28;20375;-73
2023/08/15 04:24:25;;;;;;;25.15;15.57;;;17.70;99.90;;;;;;5097966;28;20108;-73
2023/08/15 04:26:51;;;;;;;22.20;15.50;;;17.80;99.90;;;;;;5116303;28;20162;-73
2023/08/15 04:29:16;;;;;;;22.00;14.20;;;17.80;99.90;;;;;;5098340;28;20047;-73
2023/08/15 04:31:42;;;;;;;26.17;15.48;;;17.70;99.90;;;;;;5098064;28;20051;-73
2023/08/15 04:34:07;;;;;;;18.45;14.38;;;17.70;99.90;;;;;;5097768;28;20031;-73
2023/08/15 04:36:33;;;;;;;22.35;15.43;;;17.70;99.90;;;;;;5098106;28;20075;-73
2023/08/15 04:38:59;;;;;;;22.27;14.38;;;17.70;99.90;;;;;;5097692;28;20399;-73
2023/08/15 04:41:25;;;;;;;19.08;13.55;;;17.70;99.90;;;;;;5098029;28;20047;-74
2023/08/15 04:43:50;;;;;;;19.80;13.63;;;17.70;99.90;;;;;;5131984;27;20043;-73
2023/08/15 04:46:16;;;;;;;18.65;13.85;;;17.60;99.90;;;;;;5097078;28;20437;-74
2023/08/15 04:48:41;;;;;;;16.55;12.82;;;17.70;99.90;;;;;;5132031;27;20043;-73
2023/08/15 04:51:07;;;;;;;15.18;12.95;;;17.60;99.90;;;;;;5098149;28;20047;-74
2023/08/15 04:53:33;;;;;;;18.13;12.85;;;17.60;99.90;;;;;;5116084;28;20044;-74
2023/08/15 04:55:58;;;;;;;15.15;11.60;;;17.60;99.90;;;;;;5115764;28;20047;-74
2023/08/15 04:58:24;;;;;;;16.92;12.80;;;17.50;99.90;;;;;;5097449;28;20130;-74
2023/08/15 05:00:50;;;;;;;15.80;12.60;;;17.50;99.90;;;;;;5115791;28;20051;-73
2023/08/15 05:03:15;;;;;;;20.35;13.55;;;17.50;99.90;;;;;;5131677;27;20043;-74
2023/08/15 05:05:41;;;;;;;16.30;12.27;;;17.50;99.90;;;;;;5097214;28;20126;-74
2023/08/15 05:08:06;;;;;;;19.50;13.05;;;17.50;99.90;;;;;;5097473;28;20042;-73
2023/08/15 05:10:32;;;;;;;16.63;12.13;;;17.50;99.90;;;;;;5097433;28;20047;-74
2023/08/15 05:12:59;;;;;;;16.63;11.77;;;17.40;99.90;;;;;;5097129;28;20131;-74
2023/08/15 05:15:25;;;;;;;17.58;11.93;;;17.50;99.90;;;;;;5097160;28;20051;-73
2023/08/15 05:17:52;;;;;;;15.02;10.90;;;17.50;99.90;;;;;;5097318;28;20122;-74
2023/08/15 05:20:17;;;;;;;18.63;11.40;;;17.50;99.90;;;;;;5115186;28;20042;-74
2023/08/15 05:22:44;;;;;;;15.13;10.85;;;17.50;99.90;;;;;;5096926;28;20390;-73
2023/08/15 05:25:10;;;;;;;15.57;10.23;;;17.50;99.90;;;;;;5096799;28;20051;-74
2023/08/15 05:27:36;;;;;;;17.13;10.40;;;17.50;99.90;;;;;;5130729;27;20048;-74
2023/08/15 05:30:02;;;;;;;16.60;9.88;;;17.50;99.90;;;;;;5096832;28;20091;-74
2023/08/15 05:32:28;;;;;;;16.33;9.23;;;17.50;99.90;;;;;;5097038;28;20122;-74
2023/08/15 05:34:54;;;;;;;14.63;9.52;;;17.50;99.90;;;;;;5115005;28;20558;-73
2023/08/15 05:37:20;;;;;;;14.88;9.13;;;17.50;99.90;;;;;;5096651;28;20047;-74
2023/08/15 05:39:46;;;;;;;13.65;9.23;;;17.50;99.90;;;;;;5096512;28;20130;-74
2023/08/15 05:42:17;;;;;;;15.70;8.98;;;17.50;99.90;;;;;;5096513;28;20055;-74
2023/08/15 05:44:44;;;;;;;12.32;8.35;;;17.50;99.90;;;;;;5096683;28;20043;-74
2023/08/15 05:47:10;;;;;;;15.48;8.57;;;17.40;99.90;;;;;;5114623;28;20501;-74
2023/08/15 05:49:36;;;;;;;14.88;8.38;;;17.40;99.90;;;;;;5096871;28;20043;-74
2023/08/15 05:52:02;;;;;;;14.85;8.80;;;17.40;99.90;;;;;;5096289;28;20081;-74
2023/08/15 05:54:28;;;;;;;16.52;8.75;;;17.40;99.90;;;;;;5114486;28;20503;-74
2023/08/15 05:56:55;;;;;;;16.63;8.27;;;17.40;99.90;;;;;;5096474;28;20119;-74
2023/08/15 05:59:23;;;;;;;14.00;7.40;;;17.40;99.90;;;;;;5096504;28;20052;-74
2023/08/15 06:01:52;;;;;;;12.75;7.68;;;17.40;99.90;;;;;;5096258;28;20040;-74
2023/08/15 06:04:18;;;;;;;16.05;7.50;;;17.40;99.90;;;;;;5097465;28;20047;-73
2023/08/15 06:06:43;;;;;;;14.57;7.88;;;17.40;99.90;;;;;;5116601;27;20122;-74
2023/08/15 06:09:09;;;;;;;14.07;7.05;;;17.40;99.90;;;;;;5116677;27;20035;-74
2023/08/15 06:11:35;;;;;;;17.17;7.00;;;17.40;99.90;;;;;;5116619;27;20039;-74
2023/08/15 06:14:00;;;;;;;15.75;6.60;;;17.50;99.90;;;;;;5116395;27;20047;-73
2023/08/15 06:16:26;;;;;;;15.13;7.22;;;17.60;99.90;;;;;;5134753;27;20064;-74
2023/08/15 06:18:52;;;;;;;15.57;6.80;;;17.80;99.90;;;;;;5116257;27;20043;-74
2023/08/15 06:21:18;;;;;;;16.27;6.63;;;18.00;99.90;;;;;;5116548;27;20099;-74
2023/08/15 06:23:43;;;;;;;13.15;6.35;;;18.20;99.90;;;;;;5134738;27;20359;-74
2023/08/15 06:26:12;;;;;;;14.90;6.18;;;18.40;99.90;;;;;;5116108;27;20407;-74
2023/08/15 06:28:54;;;;;;;15.95;6.65;;;18.50;99.90;;;;;;5105884;27;20409;-74
2023/08/15 06:31:21;;;;;;;12.73;5.75;;;18.60;99.90;;;;;;5089364;28;20165;-72
2023/08/15 06:33:47;;;;;;;12.00;5.55;;;18.80;99.90;;;;;;5089371;28;20076;-72
2023/08/15 06:36:13;;;;;;;17.15;6.32;;;18.90;99.90;;;;;;5089261;28;20083;-72
2023/08/15 06:38:38;;;;;;;17.67;6.85;;;19.10;99.90;;;;;;5086174;28;20127;-71
2023/08/15 06:41:05;;;;;;;13.88;5.72;;;19.20;99.90;;;;;;5092030;28;20499;-73
2023/08/15 06:43:31;;;;;;;16.08;6.20;;;19.30;99.90;;;;;;5099199;28;20078;-73
2023/08/15 06:45:57;;;;;;;14.35;5.70;;;19.50;99.90;;;;;;5076519;28;20040;-73
2023/08/15 06:48:23;;;;;;;14.52;5.40;;;19.70;99.90;;;;;;5073677;28;20407;-73
2023/08/15 06:50:48;;;;;;;12.18;5.00;;;19.70;99.90;;;;;;5097201;28;20479;-73
2023/08/15 06:53:14;;;;;;;12.43;4.88;;;19.80;99.90;;;;;;5079845;28;20055;-75
2023/08/15 06:55:43;;;;;;;14.68;5.78;;;19.90;99.90;;;;;;5070630;28;20067;-74
2023/08/15 06:58:08;;;;;;;14.50;5.22;;;19.90;99.90;;;;;;5085564;28;20048;-73
2023/08/15 07:00:34;;;;;;;11.57;5.15;;;19.90;99.90;;;;;;5085726;28;20052;-74
2023/08/15 07:03:01;;;;;;;13.13;5.25;;;20.00;99.90;;;;;;5068698;28;20052;-74
2023/08/15 07:05:26;;;;;;;11.52;5.25;;;19.90;99.90;;;;;;5070092;28;20048;-74
2023/08/15 07:07:52;;;;;;;13.35;5.78;;;19.90;99.90;;;;;;5085251;28;20052;-74
2023/08/15 07:10:18;;;;;;;10.32;4.70;;;19.90;99.90;;;;;;5085504;28;20060;-74
2023/08/15 07:12:44;;;;;;;11.40;5.28;;;20.10;99.90;;;;;;5069896;28;20041;-73
2023/08/15 07:15:09;;;;;;;15.43;5.30;;;20.10;99.90;;;;;;5085136;28;20049;-75
2023/08/15 07:17:35;;;;;;;11.18;4.45;;;20.10;99.90;;;;;;5069592;28;20086;-75
2023/08/15 07:20:01;;;;;;;10.98;4.82;;;20.20;99.90;;;;;;5069769;28;20037;-74
2023/08/15 07:22:26;;;;;;;9.77;4.78;;;20.20;99.90;;;;;;5085047;28;20537;-75
2023/08/15 07:24:52;;;;;;;13.27;4.63;;;20.40;99.90;;;;;;5092069;28;20155;-74
2023/08/15 07:27:19;;;;;;;11.45;4.25;;;20.40;99.90;;;;;;5079361;28;20071;-74
2023/08/15 07:29:44;;;;;;;7.53;3.90;;;20.60;99.90;;;;;;5094385;28;20083;-74
2023/08/15 07:32:10;;;;;;;9.10;3.40;;;20.60;99.90;;;;;;5078987;28;20408;-74
2023/08/15 07:34:36;;;;;;;11.20;3.53;;;20.60;99.90;;;;;;5080902;28;20047;-74
2023/08/15 07:37:01;;;;;;;10.25;3.67;;;20.60;99.90;;;;;;5096451;28;20459;-74
2023/08/15 07:39:27;;;;;;;13.65;3.90;;;20.70;99.90;;;;;;5085324;28;20040;-74
2023/08/15 07:41:52;;;;;;;8.32;3.58;;;20.80;99.90;;;;;;5060358;28;20170;-74
2023/08/15 07:44:18;;;;;;;9.85;3.63;;;20.90;99.90;;;;;;5078814;28;20385;-74
2023/08/15 07:46:44;;;;;;;11.48;3.75;;;21.00;99.90;;;;;;5056945;28;20051;-74
2023/08/15 07:49:10;;;;;;;15.05;3.75;;;21.00;99.90;;;;;;5082567;28;20472;-74
2023/08/15 07:51:36;;;;;;;8.20;3.58;;;21.00;99.90;;;;;;5080218;28;20052;-74
2023/08/15 07:54:02;;;;;;;9.02;3.60;;;21.10;99.90;;;;;;5064173;28;20056;-74
2023/08/15 07:56:30;;;;;;;8.38;3.80;;;21.30;99.90;;;;;;5080749;28;20086;-74
2023/08/15 07:58:55;;;;;;;7.88;3.83;;;21.40;99.90;;;;;;5057577;28;20090;-74
2023/08/15 08:01:21;;;;;;;8.52;2.85;;;21.30;99.90;;;;;;5065819;28;20508;-74
2023/08/15 08:03:47;;;;;;;10.68;3.22;;;21.20;99.90;;;;;;5079247;28;20149;-74
2023/08/15 08:06:12;;;;;;;8.43;2.90;;;21.10;99.90;;;;;;5062940;28;20049;-74
2023/08/15 08:08:38;;;;;;;9.82;2.90;;;21.20;99.90;;;;;;5081487;28;20044;-75
2023/08/15 08:11:04;;;;;;;9.55;2.97;;;21.30;99.90;;;;;;5063209;28;20059;-75
2023/08/15 08:13:29;;;;;;;8.88;2.95;;;21.40;99.90;;;;;;5057330;28;20469;-74
2023/08/15 08:15:55;;;;;;;7.32;2.90;;;21.50;99.90;;;;;;5065401;28;20051;-75
2023/08/15 08:18:21;;;;;;;7.93;2.83;;;21.60;99.90;;;;;;5082065;28;20049;-75
2023/08/15 08:20:46;;;;;;;8.27;2.60;;;21.70;99.90;;;;;;5075267;28;20041;-74
2023/08/15 08:23:13;;;;;;;7.00;2.53;;;21.80;99.90;;;;;;5084275;28;20045;-75
2023/08/15 08:25:41;;;;;;;10.10;2.58;;;21.90;99.90;;;;;;5074734;28;20114;-74
2023/08/15 08:28:07;;;;;;;6.22;2.22;;;21.80;99.90;;;;;;5062417;28;20464;-75
2023/08/15 08:30:34;;;;;;;8.90;2.40;;;22.00;99.90;;;;;;5058529;28;20083;-75
2023/08/15 08:32:59;;;;;;;6.22;2.03;;;22.00;99.90;;;;;;5081184;28;20064;-75
2023/08/15 08:35:28;;;;;;;7.53;2.58;;;22.00;99.90;;;;;;5086763;28;20045;-75
2023/08/15 08:37:55;;;;;;;6.15;2.60;;;22.00;99.90;;;;;;5078356;28;20562;-75
2023/08/15 08:40:20;;;;;;;7.10;2.38;;;22.00;99.90;;;;;;5063527;28;20495;-75
2023/08/15 08:42:46;;;;;;;7.78;2.67;;;21.90;99.90;;;;;;5054706;28;20048;-74
2023/08/15 08:45:12;;;;;;;6.25;2.40;;;22.00;99.90;;;;;;5054675;28;20045;-75
2023/08/15 08:47:39;;;;;;;9.65;2.30;;;22.00;99.90;;;;;;5053411;28;20404;-74
2023/08/15 08:50:09;;;;;;;6.57;2.30;;;22.00;99.90;;;;;;5053923;28;20049;-74
2023/08/15 08:52:40;;;;;;;9.80;2.75;;;22.10;99.90;;;;;;5054645;28;20102;-74
2023/08/15 08:55:07;;;;;;;7.93;2.42;;;21.90;99.90;;;;;;5053507;28;20101;-74
2023/08/15 08:57:36;;;;;;;6.75;2.10;;;22.00;99.90;;;;;;5053305;28;20243;-74
2023/08/15 09:00:09;;;;;;;5.32;2.50;;;22.00;99.90;;;;;;5053532;28;20385;-74
2023/08/15 09:02:37;;;;;;;5.85;1.67;;;21.90;99.90;;;;;;5053396;28;20094;-75
2023/08/15 09:05:05;;;;;;;5.97;1.70;;;21.90;99.90;;;;;;5053407;28;20037;-75
2023/08/15 09:07:33;;;;;;;6.95;1.90;;;22.10;99.90;;;;;;5053417;28;20044;-75
2023/08/15 09:09:58;;;;;;;4.50;1.42;;;22.20;99.90;;;;;;5053204;28;20049;-76
2023/08/15 09:12:35;;;;;;;5.28;1.67;;;22.30;99.90;;;;;;5070078;28;20043;-75
2023/08/15 09:15:04;;;;;;;4.22;1.60;;;22.40;99.90;;;;;;5054448;28;20049;-75
2023/08/15 09:17:31;;;;;;;9.65;2.22;;;22.40;99.90;;;;;;5054528;28;20113;-75
2023/08/15 09:19:57;;;;;;;5.85;2.10;;;22.60;99.90;;;;;;5052897;28;20041;-75
2023/08/15 09:22:24;;;;;;;8.15;1.98;;;22.60;99.90;;;;;;5052958;28;20036;-79
2023/08/15 09:24:50;;;;;;;5.85;1.85;;;22.50;99.90;;;;;;5052906;28;20045;-75
2023/08/15 09:27:18;;;;;;;5.13;1.65;;;22.60;99.90;;;;;;5054010;28;20060;-75
2023/08/15 09:29:43;;;;;;;4.68;1.63;;;22.60;99.90;;;;;;5052831;28;20378;-75
2023/08/15 09:32:09;;;;;;;7.25;1.50;;;22.70;99.90;;;;;;5069415;28;20511;-75
2023/08/15 09:34:38;;;;;;;6.18;2.10;;;22.90;99.90;;;;;;5069358;28;20045;-75
2023/08/15 09:37:03;;;;;;;3.80;1.40;;;22.80;99.90;;;;;;5069285;28;20083;-75
2023/08/15 09:39:29;;;;;;;7.22;1.95;;;22.80;99.90;;;;;;5052695;28;20076;-76
2023/08/15 09:41:55;;;;;;;8.10;1.73;;;22.90;99.90;;;;;;5053799;28;20045;-74
2023/08/15 09:44:34;;;;;;;5.78;1.48;;;22.90;99.90;;;;;;5069541;28;20099;-76
2023/08/15 09:47:01;;;;;;;4.45;1.45;;;23.10;99.90;;;;;;5052610;28;20536;-75
2023/08/15 09:49:28;;;;;;;3.80;1.08;;;23.00;99.90;;;;;;5053904;28;20080;-76
2023/08/15 09:51:56;;;;;;;4.13;1.23;;;23.10;99.90;;;;;;5069428;28;20037;-76
2023/08/15 09:54:25;;;;;;;5.45;1.30;;;23.10;99.90;;;;;;5052515;28;20412;-79
2023/08/15 09:56:51;;;;;;;5.85;1.58;;;23.10;99.90;;;;;;5053693;28;20401;-75
2023/08/15 09:59:17;;;;;;;6.22;1.88;;;23.10;99.90;;;;;;5052547;28;20556;-77
2023/08/15 10:01:45;;;;;;;3.33;1.60;;;23.10;99.90;;;;;;5053425;28;20071;-76
2023/08/15 10:04:12;;;;;;;4.43;1.40;;;23.10;99.90;;;;;;5052252;28;20045;-75
2023/08/15 10:06:42;;;;;;;4.60;1.65;;;22.90;99.90;;;;;;5052229;28;20389;-76
2023/08/15 10:09:09;;;;;;;6.78;1.25;;;23.00;99.90;;;;;;5053407;28;20373;-76
2023/08/15 10:11:42;;;;;;;6.10;1.42;;;23.00;99.90;;;;;;5072044;28;20399;-75
2023/08/15 10:14:09;;;;;;;4.70;1.38;;;22.80;99.90;;;;;;5062957;28;20052;-76
2023/08/15 10:16:38;;;;;;;5.55;1.70;;;22.80;99.90;;;;;;5073353;28;20377;-76
2023/08/15 10:19:04;;;;;;;5.07;1.80;;;22.80;99.90;;;;;;5072495;28;20048;-76
2023/08/15 10:21:49;;;;;;;5.35;1.80;;;22.80;99.90;;;;;;5070983;28;20045;-75
2023/08/15 10:24:15;;;;;;;5.65;1.55;;;22.80;99.90;;;;;;5053203;28;20373;-77
2023/08/15 10:26:42;;;;;;;6.30;1.60;;;23.00;99.90;;;;;;5055561;28;20037;-74
2023/08/15 10:29:07;;;;;;;5.75;1.73;;;22.90;99.90;;;;;;5072698;28;20057;-74
2023/08/15 10:31:35;;;;;;;4.97;1.52;;;23.00;99.90;;;;;;5088721;28;20139;-75
2023/08/15 10:34:07;;;;;;;4.63;1.70;;;23.20;99.90;;;;;;5088868;28;20575;-75
2023/08/15 10:36:33;;;;;;;3.83;1.75;;;23.20;99.90;;;;;;5071987;28;20044;-75
2023/08/15 10:39:05;;;;;;;5.60;1.60;;;23.50;99.90;;;;;;5071874;28;20418;-75
2023/08/15 10:41:32;;;;;;;;;;;23.60;99.90;;;;;;5072217;28;20091;-76
2023/08/15 10:44:03;;;;;;;6.82;1.63;;;23.70;99.90;;;;;;5073366;28;19927;-76
2023/08/15 10:46:30;;;;;;;5.57;1.50;;;23.80;99.90;;;;;;5088604;28;20048;-76
2023/08/15 10:49:07;;;;;;;8.68;1.58;;;23.80;99.90;;;;;;5088512;28;20080;-75
2023/08/15 10:51:41;;;;;;;5.18;1.30;;;23.80;99.90;;;;;;5071927;28;20784;-75
2023/08/15 10:54:14;;;;;;;2.95;1.23;;;23.80;99.90;;;;;;5071803;28;20044;-75
2023/08/15 10:56:41;;;;;;;4.97;1.40;;;23.90;99.90;;;;;;5086602;28;20078;-75
2023/08/15 10:59:18;;;;;;;6.25;1.13;;;23.90;99.90;;;;;;5071158;28;20052;-75
2023/08/15 11:01:46;;;;;;;5.20;1.80;;;23.70;99.90;;;;;;5073082;28;20138;-75
2023/08/15 11:04:16;;;;;;;5.40;1.52;;;23.80;99.90;;;;;;5071498;28;20049;-75
2023/08/15 11:06:45;;;;;;;3.97;1.35;;;23.80;99.90;;;;;;5071367;28;20052;-75
2023/08/15 11:09:11;;;;;;;7.03;1.50;;;23.90;99.90;;;;;;5071381;28;20056;-75
2023/08/15 11:11:36;;;;;;;4.00;1.35;;;23.90;99.90;;;;;;5088296;28;20404;-76
2023/08/15 11:14:02;;;;;;;5.00;1.40;;;23.90;99.90;;;;;;5089451;28;20051;-78
2023/08/15 11:16:28;;;;;;;3.03;1.45;;;23.90;99.90;;;;;;5075397;28;20040;-75
2023/08/15 11:18:55;;;;;;;5.63;1.73;;;23.80;99.90;;;;;;5076243;28;20507;-74
2023/08/15 11:21:21;;;;;;;8.45;1.90;;;23.80;99.90;;;;;;5075055;28;20056;-73
2023/08/15 11:23:48;;;;;;;5.03;1.42;;;23.70;99.90;;;;;;5075019;28;20051;-72
2023/08/15 11:26:14;;;;;;;4.50;1.30;;;23.50;99.90;;;;;;5092029;28;20052;-72
2023/08/15 11:28:40;;;;;;;7.32;1.85;;;23.30;99.90;;;;;;5075967;28;20056;-72
2023/08/15 11:31:12;;;;;;;4.32;1.73;;;23.20;99.90;;;;;;5091808;28;20084;-72
2023/08/15 11:33:38;;;;;;;7.50;1.90;;;23.20;99.90;;;;;;5075023;28;20385;-75
2023/08/15 11:36:06;;;;;;;6.80;1.40;;;23.20;99.90;;;;;;5074827;28;20054;-73
2023/08/15 11:38:33;;;;;;;6.03;1.75;;;23.40;99.90;;;;;;5074746;28;20561;-74
2023/08/15 11:41:01;;;;;;;4.80;1.83;;;23.50;99.90;;;;;;5074991;28;20080;-76
2023/08/15 11:43:27;;;;;;;6.10;1.40;;;23.70;99.90;;;;;;5074928;28;20082;-75
2023/08/15 11:45:53;;;;;;;5.22;1.40;;;23.80;99.90;;;;;;5074890;28;20084;-75
2023/08/15 11:48:19;;;;;;;3.70;1.38;;;23.90;99.90;;;;;;5074502;28;20083;-75
2023/08/15 11:50:45;;;;;;;4.40;1.20;;;24.00;99.90;;;;;;5075765;28;20052;-75
2023/08/15 11:53:14;;;;;;;5.15;1.50;;;24.10;99.90;;;;;;5091491;28;20033;-74
2023/08/15 11:55:40;;;;;;;5.00;1.65;;;24.20;99.90;;;;;;5091516;28;20479;-74
2023/08/15 11:58:24;;;;;;;4.35;1.30;;;24.40;99.90;;;;;;5074640;28;20400;-72
2023/08/15 12:01:02;;;;;;;5.20;1.50;;;24.40;99.90;;;;;;5091157;28;20059;-74
2023/08/15 12:03:29;;;;;;;4.63;1.27;;;24.30;99.90;;;;;;5075894;28;20080;-74
2023/08/15 12:05:57;;;;;;;4.18;1.23;;;24.50;99.90;;;;;;5091425;28;20143;-76
2023/08/15 12:08:26;;;;;;;6.07;1.52;;;24.50;99.90;;;;;;5075495;28;20048;-73
2023/08/15 12:11:03;;;;;;;4.97;1.67;;;24.40;99.90;;;;;;5074302;28;20514;-73
2023/08/15 12:13:34;;;;;;;5.53;2.00;;;24.40;99.90;;;;;;5074431;28;20048;-73
2023/08/15 12:16:01;;;;;;;5.82;1.42;;;24.40;99.90;;;;;;5074082;28;20075;-74
2023/08/15 12:18:27;;;;;;;5.15;1.75;;;24.10;99.90;;;;;;5090980;28;20047;-75
2023/08/15 12:20:53;;;;;;;5.75;1.60;;;24.00;99.90;;;;;;5066982;28;20048;-75
2023/08/15 12:23:19;;;;;;;6.10;1.80;;;24.00;99.90;;;;;;5078621;28;20057;-75
2023/08/15 12:25:45;;;;;;;3.90;1.33;;;24.00;99.90;;;;;;5063337;28;20053;-75
2023/08/15 12:28:10;;;;;;;5.20;1.65;;;23.80;99.90;;;;;;5081759;28;20048;-75
2023/08/15 12:30:36;;;;;;;5.93;1.70;;;23.80;99.90;;;;;;5055814;28;20080;-75
2023/08/15 12:33:02;;;;;;;6.72;1.50;;;24.10;99.90;;;;;;5084968;28;20049;-75
2023/08/15 12:35:28;;;;;;;6.95;1.27;;;24.30;99.90;;;;;;5067301;28;20051;-75